tititudorancea.com
Station Historical Data
 
Daily Summary for March 29, 2017 Units:  Metric    English   Both
« Previous Day
Next Day »
Daily Weekly Monthly Yearly Custom
  Current: High: Low: Average:
Temperature: 10.6 °C 25.5 °C 10.6 °C 16.7 °C
Dew Point: 10.4 °C 16.4 °C 9.9 °C 12.6 °C
Humidity: 99 % 99 % 52 % 79 %
Wind Speed: 0 km/h 1.1 km/h 0 km/h 0 km/h
Wind Gust: 1.1 km/h 11.1 km/h - -
Wind:Calm - - NNW
Pressure: 1017.5 hPa 1018.8 hPa 1012.8 hPa -
Precipitation: 0 mm      
Historical Graphs
 
 
Ararat weather Find more about Weather in Ararat, AU


 



 


Tabular Data for March 29, 2017
Time Temperature Dew Point Pressure Wind Wind Speed Wind Gust Humidity Rainfall Rate (Hourly)
00:00 13.5 °C 10.3 °C 1018.8 hPa Calm     81 % 0 mm
00:05 13.4 °C 10.2 °C 1018.8 hPa Calm     81 % 0 mm
00:10 13.4 °C 10.4 °C 1018.8 hPa Calm     82 % 0 mm
00:15 13.3 °C 10.3 °C 1018.8 hPa Calm     82 % 0 mm
00:20 13.3 °C 10.3 °C 1018.8 hPa Calm     82 % 0 mm
00:25 13.2 °C 10.4 °C 1018.8 hPa Calm     83 % 0 mm
00:30 13.2 °C 10.4 °C 1018.8 hPa Calm     83 % 0 mm
00:35 13.2 °C 10.4 °C 1018.5 hPa Calm     83 % 0 mm
00:40 13.1 °C 10.3 °C 1018.5 hPa Calm     83 % 0 mm
00:43 13.1 °C 10.3 °C 1018.5 hPa Calm     83 % 0 mm
00:48 13.1 °C 10.2 °C 1018.5 hPa Calm     83 % 0 mm
00:53 13.1 °C 10.4 °C 1018.5 hPa Calm     84 % 0 mm
00:58 12.9 °C 10.3 °C 1018.5 hPa Calm     84 % 0 mm
01:03 12.9 °C 10.3 °C 1018.2 hPa Calm     84 % 0 mm
01:08 12.9 °C 10.3 °C 1018.2 hPa Calm     84 % 0 mm
01:13 12.9 °C 10.5 °C 1018.2 hPa Calm     85 % 0 mm
01:18 12.8 °C 10.2 °C 1018.5 hPa Calm     84 % 0 mm
01:23 12.8 °C 10.4 °C 1018.2 hPa Calm     85 % 0 mm
01:28 12.7 °C 10.3 °C 1018.2 hPa Calm     85 % 0 mm
01:33 12.7 °C 10.2 °C 1018.2 hPa Calm     85 % 0 mm
01:39 12.6 °C 10.1 °C 1017.8 hPa Calm     85 % 0 mm
01:44 12.6 °C 10.3 °C 1018.2 hPa Calm     86 % 0 mm
01:49 12.4 °C 10.2 °C 1017.8 hPa Calm     86 % 0 mm
01:54 12.3 °C 10.1 °C 1017.8 hPa Calm     86 % 0 mm
01:59 12.2 °C 10 °C 1017.8 hPa Calm     86 % 0 mm
02:04 12.2 °C 10.1 °C 1017.8 hPa Calm     87 % 0 mm
02:05 12.2 °C 10.1 °C 1017.8 hPa Calm     87 % 0 mm
02:10 12.2 °C 10.1 °C 1017.8 hPa Calm     87 % 0 mm
02:15 12.1 °C 9.9 °C 1017.8 hPa Calm     87 % 0 mm
02:20 12.1 °C 10.1 °C 1017.5 hPa Calm     88 % 0 mm
02:25 12.1 °C 10.1 °C 1017.5 hPa Calm     88 % 0 mm
02:30 12.1 °C 10.1 °C 1017.5 hPa Calm     88 % 0 mm
02:35 12.1 °C 10.3 °C 1017.5 hPa Calm     89 % 0 mm
02:40 12.1 °C 10.3 °C 1017.5 hPa Calm     89 % 0 mm
02:45 12.1 °C 10.3 °C 1017.2 hPa Calm     89 % 0 mm
02:47 12.1 °C 10.4 °C 1017.5 hPa Calm     90 % 0 mm
02:52 12.1 °C 10.4 °C 1017.2 hPa Calm     90 % 0 mm
02:57 12.2 °C 10.6 °C 1017.2 hPa Calm     90 % 0 mm
03:02 12.2 °C 10.6 °C 1017.5 hPa Calm     90 % 0 mm
03:07 12.2 °C 10.7 °C 1017.2 hPa Calm     90 % 0 mm
03:12 12.2 °C 10.7 °C 1017.2 hPa Calm     90 % 0 mm
03:17 12.2 °C 10.7 °C 1017.2 hPa Calm     90 % 0 mm
03:22 12.3 °C 10.8 °C 1017.2 hPa Calm     90 % 0 mm
03:27 12.2 °C 10.7 °C 1017.2 hPa Calm     90 % 0 mm
03:32 12.2 °C 10.7 °C 1016.8 hPa Calm     90 % 0 mm
03:37 12.2 °C 10.7 °C 1016.8 hPa Calm     91 % 0 mm
03:42 12.2 °C 10.7 °C 1016.8 hPa Calm     91 % 0 mm
03:47 12.2 °C 10.7 °C 1017.2 hPa Calm     91 % 0 mm
03:52 12.2 °C 10.7 °C 1016.8 hPa Calm     91 % 0 mm
03:57 12.1 °C 10.6 °C 1016.8 hPa Calm     91 % 0 mm
04:02 12.1 °C 10.6 °C 1016.8 hPa Calm     91 % 0 mm
04:07 12.1 °C 10.6 °C 1016.8 hPa Calm     91 % 0 mm
04:12 12.1 °C 10.6 °C 1016.8 hPa Calm     91 % 0 mm
04:17 11.9 °C 10.7 °C 1016.5 hPa Calm     92 % 0 mm
04:22 11.9 °C 10.7 °C 1016.5 hPa Calm     92 % 0 mm
04:27 11.9 °C 10.7 °C 1016.5 hPa Calm     92 % 0 mm
04:32 11.8 °C 10.6 °C 1016.1 hPa Calm     92 % 0 mm
04:37 11.9 °C 10.7 °C 1016.5 hPa Calm     92 % 0 mm
04:42 11.9 °C 10.7 °C 1016.5 hPa Calm     92 % 0 mm
04:47 11.9 °C 10.9 °C 1016.5 hPa Calm     93 % 0 mm
04:52 11.9 °C 10.9 °C 1016.5 hPa Calm     93 % 0 mm
04:57 11.9 °C 10.9 °C 1016.5 hPa Calm     93 % 0 mm
05:02 11.9 °C 10.9 °C 1016.1 hPa Calm     93 % 0 mm
05:07 11.9 °C 10.9 °C 1016.5 hPa Calm     93 % 0 mm
05:12 11.8 °C 10.8 °C 1016.1 hPa Calm     93 % 0 mm
05:17 11.8 °C 10.8 °C 1016.1 hPa Calm     93 % 0 mm
05:22 11.8 °C 10.7 °C 1016.1 hPa Calm     93 % 0 mm
05:27 11.8 °C 10.7 °C 1016.1 hPa Calm     93 % 0 mm
05:32 11.7 °C 10.6 °C 1016.1 hPa Calm     93 % 0 mm
05:37 11.7 °C 10.6 °C 1016.1 hPa Calm     93 % 0 mm
05:42 11.6 °C 10.5 °C 1016.5 hPa Calm     93 % 0 mm
05:47 11.6 °C 10.5 °C 1016.5 hPa Calm     93 % 0 mm
05:52 11.4 °C 10.4 °C 1016.5 hPa Calm     93 % 0 mm
05:53 11.4 °C 10.4 °C 1016.5 hPa Calm     93 % 0 mm
05:58 11.4 °C 10.3 °C 1016.5 hPa Calm     93 % 0 mm
06:03 11.4 °C 10.3 °C 1016.5 hPa Calm     93 % 0 mm
06:08 11.3 °C 10.2 °C 1016.8 hPa Calm     93 % 0 mm
06:13 11.2 °C 10.1 °C 1016.5 hPa Calm     93 % 0 mm
06:18 11.1 °C 10 °C 1016.5 hPa Calm     93 % 0 mm
06:23 11.1 °C 10 °C 1016.5 hPa Calm     93 % 0 mm
06:28 11.1 °C 10 °C 1016.1 hPa Calm     93 % 0 mm
06:33 11 °C 9.9 °C 1016.5 hPa Calm     93 % 0 mm
06:38 11 °C 10.1 °C 1016.5 hPa Calm     94 % 0 mm
06:43 11 °C 10.1 °C 1016.1 hPa Calm     94 % 0 mm
06:48 10.9 °C 9.9 °C 1016.1 hPa Calm     94 % 0 mm
06:53 10.9 °C 9.9 °C 1016.1 hPa Calm     94 % 0 mm
06:58 10.9 °C 10.1 °C 1016.1 hPa Calm     95 % 0 mm
07:03 11 °C 10.2 °C 1016.1 hPa Calm     95 % 0 mm
07:08 10.9 °C 10.1 °C 1016.1 hPa Calm     95 % 0 mm
07:13 11 °C 10.2 °C 1016.1 hPa Calm     95 % 0 mm
07:18 10.9 °C 10.1 °C 1016.1 hPa Calm     95 % 0 mm
07:23 10.9 °C 10.1 °C 1016.1 hPa Calm     95 % 0 mm
07:28 11 °C 10.4 °C 1016.1 hPa Calm     96 % 0 mm
07:33 11 °C 10.4 °C 1016.1 hPa Calm     96 % 0 mm
07:38 11 °C 10.4 °C 1016.1 hPa Calm     96 % 0 mm
07:43 11.1 °C 10.4 °C 1016.1 hPa Calm     96 % 0 mm
07:48 11.1 °C 10.6 °C 1016.1 hPa Calm     97 % 0 mm
07:53 11.3 °C 10.8 °C 1016.1 hPa Calm     97 % 0 mm
07:58 11.4 °C 10.9 °C 1016.1 hPa Calm     97 % 0 mm
08:03 11.6 °C 11.3 °C 1016.1 hPa Calm     98 % 0 mm
08:08 11.8 °C 11.4 °C 1016.1 hPa Calm     98 % 0 mm
08:13 11.9 °C 11.7 °C 1016.1 hPa Calm     98 % 0 mm
08:18 12.2 °C 12.1 °C 1016.1 hPa Calm     99 % 0 mm
08:23 12.7 °C 12.5 °C 1016.5 hPa Calm     99 % 0 mm
08:28 12.9 °C 12.8 °C 1016.5 hPa Calm     99 % 0 mm
08:33 13.4 °C 13.1 °C 1016.1 hPa Calm     98 % 0 mm
08:38 13.7 °C 13.4 °C 1016.5 hPa Calm     98 % 0 mm
08:43 14 °C 13.6 °C 1016.5 hPa Calm     97 % 0 mm
08:48 14.4 °C 13.8 °C 1016.1 hPa Calm     96 % 0 mm
08:53 14.8 °C 14.2 °C 1016.1 hPa Calm     96 % 0 mm
08:58 15.2 °C 14.4 °C 1016.5 hPa Calm     95 % 0 mm
09:03 15.6 °C 14.4 °C 1016.5 hPa Calm     93 % 0 mm
09:08 15.9 °C 14.6 °C 1016.1 hPa Calm     92 % 0 mm
09:13 16.2 °C 14.7 °C 1016.5 hPa Calm     91 % 0 mm
09:18 16.6 °C 14.9 °C 1016.1 hPa Calm     90 % 0 mm
09:23 17.2 °C 15.3 °C 1016.1 hPa Calm     89 % 0 mm
09:28 17.4 °C 15.3 °C 1016.1 hPa Calm     87 % 0 mm
09:33 17.9 °C 15.4 °C 1016.5 hPa Calm     85 % 0 mm
09:38 18.2 °C 15.5 °C 1016.5 hPa Calm     84 % 0 mm
09:43 18.5 °C 15.4 °C 1016.1 hPa Calm     82 % 0 mm
09:48 18.7 °C 15.6 °C 1016.5 hPa Calm     82 % 0 mm
09:53 19 °C 15.7 °C 1016.5 hPa Calm     81 % 0 mm
09:59 19.5 °C 15.8 °C 1016.5 hPa Calm     79 % 0 mm
10:04 19.7 °C 15.8 °C 1016.5 hPa Calm   1.1 km/h 78 % 0 mm
10:09 19.7 °C 15.6 °C 1016.1 hPa Calm   1.1 km/h 77 % 0 mm
10:14 19.5 °C 15.4 °C 1016.1 hPa Calm     77 % 0 mm
10:19 19.9 °C 15.8 °C 1016.1 hPa Calm     77 % 0 mm
10:24 20.4 °C 16 °C 1016.1 hPa Calm   1.1 km/h 76 % 0 mm
10:29 20.8 °C 16 °C 1016.1 hPa Calm   1.1 km/h 74 % 0 mm
10:34 21.1 °C 16.1 °C 1016.1 hPa Calm     73 % 0 mm
10:39 21.3 °C 16.1 °C 1016.1 hPa Calm     72 % 0 mm
10:44 21.4 °C 15.9 °C 1016.1 hPa Calm     71 % 0 mm
10:49 21.4 °C 16 °C 1016.1 hPa Calm     71 % 0 mm
10:54 21.2 °C 15.7 °C 1016.1 hPa Calm     71 % 0 mm
10:59 21.2 °C 15.7 °C 1016.1 hPa Calm   1.1 km/h 71 % 0 mm
11:04 21.4 °C 15.9 °C 1016.1 hPa Calm   1.1 km/h 71 % 0 mm
11:09 21.7 °C 16.2 °C 1016.1 hPa Calm     71 % 0 mm
11:14 21.9 °C 16.2 °C 1016.1 hPa Calm     70 % 0 mm
11:19 22.2 °C 16.2 °C 1016.1 hPa Calm     69 % 0 mm
11:24 22.2 °C 16.2 °C 1016.1 hPa Calm     69 % 0 mm
11:29 22.2 °C 16.3 °C 1016.1 hPa Calm   11.1 km/h 69 % 0 mm
11:34 22.3 °C 16.2 °C 1016.1 hPa Calm   11.1 km/h 68 % 0 mm
11:39 22.3 °C 16.4 °C 1015.8 hPa Calm     69 % 0 mm
11:44 22.6 °C 16.4 °C 1015.8 hPa Calm     68 % 0 mm
11:49 22.4 °C 16.3 °C 1015.8 hPa Calm     68 % 0 mm
11:54 22.8 °C 16.4 °C 1015.8 hPa Calm     67 % 0 mm
11:59 23.1 °C 16.1 °C 1015.8 hPa Calm     65 % 0 mm
12:04 22.7 °C 15.8 °C 1015.8 hPa Calm     65 % 0 mm
12:09 22.7 °C 15.8 °C 1015.8 hPa Calm   1.1 km/h 65 % 0 mm
12:14 22.9 °C 16 °C 1015.5 hPa Calm   1.1 km/h 65 % 0 mm
12:19 23.5 °C 15.8 °C 1015.5 hPa Calm     62 % 0 mm
12:24 23.4 °C 15.2 °C 1015.5 hPa Calm     60 % 0 mm
12:29 23.1 °C 14.9 °C 1015.5 hPa Calm   1.1 km/h 60 % 0 mm
12:31 22.8 °C 14.9 °C 1015.5 hPa Calm   1.1 km/h 61 % 0 mm
12:36 22.8 °C 15.2 °C 1015.1 hPa NNW 1.1 km/h 9.7 km/h 62 % 0 mm
12:41 23.1 °C 15.1 °C 1015.1 hPa Calm   9.7 km/h 61 % 0 mm
12:46 23.5 °C 15.1 °C 1014.8 hPa Calm   9.7 km/h 59 % 0 mm
12:51 23.6 °C 14.3 °C 1015.1 hPa Calm   1.1 km/h 56 % 0 mm
12:56 23.8 °C 14.8 °C 1014.8 hPa Calm   1.1 km/h 57 % 0 mm
13:02 24.1 °C 14.5 °C 1014.8 hPa Calm     55 % 0 mm
13:07 24.5 °C 14.6 °C 1014.8 hPa Calm   1.1 km/h 54 % 0 mm
13:12 24.7 °C 15.3 °C 1014.4 hPa Calm   1.1 km/h 56 % 0 mm
13:17 25 °C 15.1 °C 1014.4 hPa Calm   1.1 km/h 54 % 0 mm
13:22 25.1 °C 15.2 °C 1014.1 hPa Calm     54 % 0 mm
13:27 25.3 °C 15.3 °C 1014.4 hPa Calm   1.1 km/h 54 % 0 mm
13:32 25.5 °C 15.5 °C 1014.4 hPa Calm   1.1 km/h 54 % 0 mm
13:37 25.2 °C 15.2 °C 1014.4 hPa Calm   1.1 km/h 54 % 0 mm
13:42 25.3 °C 15.1 °C 1014.4 hPa Calm   1.1 km/h 53 % 0 mm
13:47 25.2 °C 14.9 °C 1014.1 hPa Calm   1.1 km/h 53 % 0 mm
13:52 24.9 °C 14.7 °C 1014.4 hPa Calm     53 % 0 mm
13:57 24.8 °C 15.2 °C 1014.1 hPa Calm   1.1 km/h 55 % 0 mm
14:02 25.3 °C 15.6 °C 1014.1 hPa Calm   1.1 km/h 55 % 0 mm
14:07 25.2 °C 15.2 °C 1013.8 hPa Calm     54 % 0 mm
14:12 25.4 °C 15.1 °C 1013.8 hPa Calm   1.1 km/h 53 % 0 mm
14:17 25.4 °C 15.4 °C 1013.8 hPa Calm   1.1 km/h 54 % 0 mm
14:22 25 °C 15.1 °C 1013.8 hPa Calm   1.1 km/h 54 % 0 mm
14:27 24.7 °C 14.8 °C 1013.4 hPa Calm     54 % 0 mm
14:32 24.8 °C 15.2 °C 1013.8 hPa Calm   1.1 km/h 55 % 0 mm
14:37 24.8 °C 14.9 °C 1013.8 hPa Calm   1.1 km/h 54 % 0 mm
14:42 24.3 °C 14.7 °C 1013.8 hPa Calm   2.6 km/h 55 % 0 mm
14:47 24.5 °C 14.9 °C 1013.4 hPa Calm   2.6 km/h 55 % 0 mm
14:52 24.6 °C 15.3 °C 1013.4 hPa Calm   1.1 km/h 56 % 0 mm
14:57 24.6 °C 14.4 °C 1013.4 hPa Calm   1.1 km/h 53 % 0 mm
15:02 24.3 °C 14.7 °C 1013.4 hPa Calm   1.1 km/h 55 % 0 mm
15:07 24.6 °C 15 °C 1013.4 hPa Calm     55 % 0 mm
15:12 24.6 °C 14.7 °C 1013.4 hPa Calm     54 % 0 mm
15:17 24.4 °C 14.8 °C 1013.4 hPa Calm   1.1 km/h 55 % 0 mm
15:22 24.4 °C 14.8 °C 1013.4 hPa Calm   1.1 km/h 55 % 0 mm
15:27 24.2 °C 14.6 °C 1013.4 hPa Calm     55 % 0 mm
15:32 23.9 °C 14.6 °C 1013.4 hPa Calm     56 % 0 mm
15:37 23.8 °C 14.5 °C 1013.1 hPa Calm   1.1 km/h 56 % 0 mm
15:42 24 °C 14.4 °C 1013.1 hPa Calm   1.1 km/h 55 % 0 mm
15:47 24.1 °C 14.5 °C 1013.4 hPa Calm     55 % 0 mm
15:52 24 °C 14.4 °C 1013.4 hPa Calm     55 % 0 mm
15:57 24 °C 14.4 °C 1013.1 hPa Calm   1.1 km/h 55 % 0 mm
16:02 24.1 °C 14.8 °C 1013.1 hPa Calm   1.1 km/h 56 % 0 mm
16:07 24.3 °C 14.4 °C 1013.1 hPa Calm     54 % 0 mm
16:12 24 °C 14.4 °C 1013.1 hPa Calm     55 % 0 mm
16:17 24 °C 14.2 °C 1013.1 hPa Calm   1.1 km/h 54 % 0 mm
16:22 24.2 °C 14.1 °C 1013.1 hPa Calm   1.1 km/h 53 % 0 mm
16:27 24.1 °C 13.9 °C 1013.1 hPa Calm     53 % 0 mm
16:32 24 °C 13.8 °C 1013.1 hPa Calm     53 % 0 mm
16:37 23.9 °C 13.8 °C 1013.1 hPa Calm   1.1 km/h 53 % 0 mm
16:42 23.8 °C 13.7 °C 1013.1 hPa Calm   1.1 km/h 53 % 0 mm
16:47 23.6 °C 13.5 °C 1013.4 hPa Calm     53 % 0 mm
16:52 23.6 °C 13.8 °C 1013.1 hPa Calm   1.1 km/h 54 % 0 mm
16:57 23.8 °C 13.9 °C 1013.1 hPa Calm   1.1 km/h 54 % 0 mm
17:02 23.8 °C 13.9 °C 1013.1 hPa Calm   1.1 km/h 54 % 0 mm
17:07 23.9 °C 13.8 °C 1012.8 hPa Calm   1.1 km/h 53 % 0 mm
17:12 23.6 °C 13.5 °C 1013.4 hPa Calm   1.1 km/h 53 % 0 mm
17:17 23.5 °C 13.4 °C 1013.1 hPa Calm     53 % 0 mm
17:22 23.3 °C 13.2 °C 1013.4 hPa Calm     53 % 0 mm
17:27 22.9 °C 12.6 °C 1013.4 hPa Calm     52 % 0 mm
17:32 22.6 °C 12.6 °C 1013.4 hPa Calm     53 % 0 mm
17:37 21.3 °C 12.9 °C 1014.8 hPa Calm   1.1 km/h 59 % 0 mm
17:42 18.6 °C 12.8 °C 1015.1 hPa Calm   1.1 km/h 69 % 0 mm
17:48 16.8 °C 12.3 °C 1015.1 hPa Calm     75 % 0 mm
17:53 15.7 °C 12.1 °C 1015.1 hPa Calm   1.1 km/h 79 % 0 mm
17:58 15 °C 12.1 °C 1015.1 hPa Calm   1.1 km/h 83 % 0 mm
18:03 14.6 °C 12.4 °C 1015.5 hPa Calm   1.1 km/h 87 % 0 mm
18:08 14.2 °C 12.4 °C 1015.5 hPa Calm   1.1 km/h 89 % 0 mm
18:13 13.8 °C 12.6 °C 1015.8 hPa Calm   1.1 km/h 92 % 0 mm
18:18 13.5 °C 12.3 °C 1015.8 hPa Calm   1.1 km/h 92 % 0 mm
18:19 13.5 °C 12.3 °C 1016.1 hPa Calm   1.1 km/h 92 % 0 mm
18:24 13.4 °C 12.3 °C 1016.1 hPa Calm   1.1 km/h 93 % 0 mm
18:29 13.4 °C 12.2 °C 1016.1 hPa Calm   1.1 km/h 92 % 0 mm
18:34 13.2 °C 11.9 °C 1016.5 hPa Calm   1.1 km/h 92 % 0 mm
18:39 13.1 °C 11.6 °C 1016.5 hPa Calm   1.1 km/h 91 % 0 mm
18:44 12.7 °C 11.5 °C 1016.5 hPa Calm   1.1 km/h 92 % 0 mm
18:49 12.7 °C 11.7 °C 1016.5 hPa Calm   1.1 km/h 93 % 0 mm
18:54 12.6 °C 11.8 °C 1016.8 hPa Calm     95 % 0 mm
18:59 12.1 °C 11.4 °C 1016.8 hPa Calm   1.1 km/h 96 % 0 mm
19:04 11.7 °C 11.2 °C 1017.2 hPa Calm   1.1 km/h 97 % 0 mm
19:09 11.4 °C 11 °C 1017.2 hPa Calm   1.1 km/h 97 % 0 mm
19:11 11.4 °C 11 °C 1017.2 hPa Calm   1.1 km/h 97 % 0 mm
19:16 11.4 °C 10.9 °C 1017.2 hPa Calm   1.1 km/h 97 % 0 mm
19:21 11.3 °C 10.8 °C 1017.2 hPa Calm   1.1 km/h 97 % 0 mm
19:26 11.1 °C 10.6 °C 1017.2 hPa Calm   1.1 km/h 97 % 0 mm
19:31 11 °C 10.7 °C 1017.2 hPa Calm     98 % 0 mm
19:36 10.9 °C 10.6 °C 1017.2 hPa Calm     98 % 0 mm
19:41 10.7 °C 10.6 °C 1017.2 hPa Calm   1.1 km/h 99 % 0 mm
19:46 10.7 °C 10.6 °C 1017.5 hPa Calm   1.1 km/h 99 % 0 mm
19:51 10.7 °C 10.6 °C 1017.2 hPa Calm     99 % 0 mm
19:56 10.6 °C 10.4 °C 1017.5 hPa Calm     99 % 0 mm
20:01 10.6 °C 10.4 °C 1017.5 hPa Calm   1.1 km/h 99 % 0 mm
Ararat Weather
Compliments of Weather Underground - 1.75 mb
Click here to send mail.


ABOUT

Live weather data from Ararat, Victoria, Australia, 3377
Data uploaded from Cumulus every 5 minutes to Weather Underground.
This site then downloads the raw data for formatting and display.
Metric and imperial data can be displayed. Graphs and historical data available.
Includes Sun and Moon times and rain image live from BOM.

Check out Ararat Weather on Facebook, Twitter and Google +

Help support ongoing costs by checking out the ads





Follow @AraratWeather